Terminal Aerodrome Forecast
Issued by NWS

Home | Current Version | Previous Version | Text Only | Print | Product List | Glossary On
Versions: 1 2 3 4 5 6 7 8 9 10 11 12 13 14 15 16 17
000
FTUS46 KMTR 292349
TAFMRY
TAF
KMRY 292349Z 3000/3024 25010KT P6SM FEW150 SCT300
      TEMPO 3005/3009 BKN011
     FM300900 29008KT P6SM BKN011
     FM301700 29012KT P6SM SCT150=

USA.gov is the U.S. government's official web portal to all federal, state and local government web resources and services.